sensor_id;sensor_type;location;lat;lon;timestamp;P1;durP1;ratioP1;P2;durP2;ratioP2
59074;SDS011;44860;53.020;6.738;2023-03-23T00:00:01;17.65;;;13.65;;
59074;SDS011;44860;53.020;6.738;2023-03-23T00:02:30;15.10;;;12.82;;
59074;SDS011;44860;53.020;6.738;2023-03-23T00:05:06;16.98;;;12.15;;
59074;SDS011;44860;53.020;6.738;2023-03-23T00:07:49;15.80;;;12.95;;
59074;SDS011;44860;53.020;6.738;2023-03-23T00:10:17;14.50;;;11.70;;
59074;SDS011;44860;53.020;6.738;2023-03-23T00:12:42;14.52;;;12.57;;
59074;SDS011;44860;53.020;6.738;2023-03-23T00:15:10;15.90;;;11.45;;
59074;SDS011;44860;53.020;6.738;2023-03-23T00:17:50;14.93;;;11.60;;
59074;SDS011;44860;53.020;6.738;2023-03-23T00:20:16;16.67;;;11.80;;
59074;SDS011;44860;53.020;6.738;2023-03-23T00:22:43;14.85;;;11.15;;
59074;SDS011;44860;53.020;6.738;2023-03-23T00:25:08;15.90;;;11.15;;
59074;SDS011;44860;53.020;6.738;2023-03-23T00:27:34;12.68;;;11.00;;
59074;SDS011;44860;53.020;6.738;2023-03-23T00:30:00;15.85;;;10.55;;
59074;SDS011;44860;53.020;6.738;2023-03-23T00:32:26;13.55;;;10.90;;
59074;SDS011;44860;53.020;6.738;2023-03-23T00:34:55;13.23;;;10.90;;
59074;SDS011;44860;53.020;6.738;2023-03-23T00:37:23;14.70;;;10.85;;
59074;SDS011;44860;53.020;6.738;2023-03-23T00:39:50;14.57;;;11.23;;
59074;SDS011;44860;53.020;6.738;2023-03-23T00:42:16;13.77;;;10.38;;
59074;SDS011;44860;53.020;6.738;2023-03-23T00:44:42;15.15;;;11.27;;
59074;SDS011;44860;53.020;6.738;2023-03-23T00:47:09;16.13;;;10.48;;
59074;SDS011;44860;53.020;6.738;2023-03-23T00:49:36;13.90;;;10.43;;
59074;SDS011;44860;53.020;6.738;2023-03-23T00:52:03;12.85;;;9.90;;
59074;SDS011;44860;53.020;6.738;2023-03-23T00:54:30;14.00;;;9.77;;
59074;SDS011;44860;53.020;6.738;2023-03-23T00:56:56;15.25;;;10.63;;
59074;SDS011;44860;53.020;6.738;2023-03-23T00:59:22;13.32;;;9.65;;
59074;SDS011;44860;53.020;6.738;2023-03-23T01:01:48;12.95;;;9.43;;
59074;SDS011;44860;53.020;6.738;2023-03-23T01:04:14;11.52;;;9.13;;
59074;SDS011;44860;53.020;6.738;2023-03-23T01:06:41;13.40;;;9.32;;
59074;SDS011;44860;53.020;6.738;2023-03-23T01:09:09;13.75;;;8.65;;
59074;SDS011;44860;53.020;6.738;2023-03-23T01:11:40;12.23;;;8.27;;
59074;SDS011;44860;53.020;6.738;2023-03-23T01:14:07;14.38;;;9.52;;
59074;SDS011;44860;53.020;6.738;2023-03-23T01:16:33;12.57;;;7.90;;
59074;SDS011;44860;53.020;6.738;2023-03-23T01:18:59;11.77;;;7.85;;
59074;SDS011;44860;53.020;6.738;2023-03-23T01:21:24;10.32;;;7.35;;
59074;SDS011;44860;53.020;6.738;2023-03-23T01:23:50;12.73;;;7.80;;
59074;SDS011;44860;53.020;6.738;2023-03-23T01:26:17;11.73;;;6.85;;
59074;SDS011;44860;53.020;6.738;2023-03-23T01:28:45;9.88;;;7.10;;
59074;SDS011;44860;53.020;6.738;2023-03-23T01:31:13;8.40;;;6.25;;
59074;SDS011;44860;53.020;6.738;2023-03-23T01:33:41;9.00;;;6.10;;
59074;SDS011;44860;53.020;6.738;2023-03-23T01:36:09;11.15;;;6.60;;
59074;SDS011;44860;53.020;6.738;2023-03-23T01:38:37;9.45;;;6.40;;
59074;SDS011;44860;53.020;6.738;2023-03-23T01:41:03;9.85;;;5.95;;
59074;SDS011;44860;53.020;6.738;2023-03-23T01:43:29;10.13;;;5.75;;
59074;SDS011;44860;53.020;6.738;2023-03-23T01:45:55;7.43;;;5.80;;
59074;SDS011;44860;53.020;6.738;2023-03-23T01:48:34;10.63;;;6.07;;
59074;SDS011;44860;53.020;6.738;2023-03-23T01:51:09;8.48;;;5.40;;
59074;SDS011;44860;53.020;6.738;2023-03-23T01:53:42;8.45;;;5.55;;
59074;SDS011;44860;53.020;6.738;2023-03-23T01:56:14;10.10;;;5.70;;
59074;SDS011;44860;53.020;6.738;2023-03-23T01:58:45;11.13;;;5.40;;
59074;SDS011;44860;53.020;6.738;2023-03-23T02:01:12;9.38;;;5.47;;
59074;SDS011;44860;53.020;6.738;2023-03-23T02:03:41;9.30;;;5.28;;
59074;SDS011;44860;53.020;6.738;2023-03-23T02:06:10;10.23;;;5.35;;
59074;SDS011;44860;53.020;6.738;2023-03-23T02:08:37;8.52;;;5.03;;
59074;SDS011;44860;53.020;6.738;2023-03-23T02:11:18;9.23;;;5.20;;
59074;SDS011;44860;53.020;6.738;2023-03-23T02:13:46;6.55;;;4.57;;
59074;SDS011;44860;53.020;6.738;2023-03-23T02:16:19;8.85;;;4.97;;
59074;SDS011;44860;53.020;6.738;2023-03-23T02:30:43;7.53;;;4.45;;
59074;SDS011;44860;53.020;6.738;2023-03-23T02:33:28;9.10;;;4.72;;
59074;SDS011;44860;53.020;6.738;2023-03-23T02:39:00;9.35;;;4.70;;
59074;SDS011;44860;53.020;6.738;2023-03-23T02:41:36;7.82;;;4.40;;
59074;SDS011;44860;53.020;6.738;2023-03-23T02:44:12;8.80;;;4.50;;
59074;SDS011;44860;53.020;6.738;2023-03-23T02:46:39;9.02;;;4.35;;
59074;SDS011;44860;53.020;6.738;2023-03-23T02:49:06;8.57;;;4.38;;
59074;SDS011;44860;53.020;6.738;2023-03-23T02:51:34;7.18;;;4.50;;
59074;SDS011;44860;53.020;6.738;2023-03-23T02:54:00;7.32;;;4.60;;
59074;SDS011;44860;53.020;6.738;2023-03-23T02:56:28;7.47;;;4.10;;
59074;SDS011;44860;53.020;6.738;2023-03-23T02:58:54;6.60;;;4.43;;
59074;SDS011;44860;53.020;6.738;2023-03-23T03:03:59;7.85;;;4.35;;
59074;SDS011;44860;53.020;6.738;2023-03-23T03:12:21;8.15;;;3.92;;
59074;SDS011;44860;53.020;6.738;2023-03-23T03:18:14;6.97;;;3.78;;
59074;SDS011;44860;53.020;6.738;2023-03-23T03:20:48;6.65;;;3.92;;
59074;SDS011;44860;53.020;6.738;2023-03-23T03:23:16;6.97;;;4.28;;
59074;SDS011;44860;53.020;6.738;2023-03-23T03:25:43;7.55;;;4.00;;
59074;SDS011;44860;53.020;6.738;2023-03-23T03:28:14;8.93;;;4.10;;
59074;SDS011;44860;53.020;6.738;2023-03-23T03:30:42;8.25;;;4.30;;
59074;SDS011;44860;53.020;6.738;2023-03-23T03:33:09;8.43;;;3.97;;
59074;SDS011;44860;53.020;6.738;2023-03-23T03:35:37;9.07;;;4.45;;
59074;SDS011;44860;53.020;6.738;2023-03-23T03:38:09;6.55;;;3.92;;
59074;SDS011;44860;53.020;6.738;2023-03-23T03:40:36;6.65;;;4.40;;
59074;SDS011;44860;53.020;6.738;2023-03-23T03:43:02;7.38;;;4.40;;
59074;SDS011;44860;53.020;6.738;2023-03-23T03:45:29;7.25;;;4.68;;
59074;SDS011;44860;53.020;6.738;2023-03-23T03:47:55;9.23;;;5.13;;
59074;SDS011;44860;53.020;6.738;2023-03-23T03:50:21;8.02;;;4.70;;
59074;SDS011;44860;53.020;6.738;2023-03-23T03:52:46;8.68;;;5.00;;
59074;SDS011;44860;53.020;6.738;2023-03-23T03:55:12;8.68;;;4.75;;
59074;SDS011;44860;53.020;6.738;2023-03-23T03:57:38;9.43;;;5.18;;
59074;SDS011;44860;53.020;6.738;2023-03-23T04:00:05;8.50;;;5.15;;
59074;SDS011;44860;53.020;6.738;2023-03-23T04:02:46;8.40;;;4.90;;
59074;SDS011;44860;53.020;6.738;2023-03-23T04:05:15;7.60;;;5.00;;
59074;SDS011;44860;53.020;6.738;2023-03-23T04:07:41;8.82;;;4.88;;
59074;SDS011;44860;53.020;6.738;2023-03-23T04:10:08;9.32;;;4.97;;
59074;SDS011;44860;53.020;6.738;2023-03-23T04:12:36;9.13;;;5.68;;
59074;SDS011;44860;53.020;6.738;2023-03-23T04:15:03;9.32;;;5.53;;
59074;SDS011;44860;53.020;6.738;2023-03-23T04:17:29;7.65;;;4.90;;
59074;SDS011;44860;53.020;6.738;2023-03-23T04:19:55;10.48;;;5.43;;
59074;SDS011;44860;53.020;6.738;2023-03-23T04:22:25;6.82;;;4.80;;
59074;SDS011;44860;53.020;6.738;2023-03-23T04:24:55;8.50;;;4.90;;
59074;SDS011;44860;53.020;6.738;2023-03-23T04:27:28;9.13;;;5.18;;
59074;SDS011;44860;53.020;6.738;2023-03-23T04:29:56;8.82;;;5.50;;
59074;SDS011;44860;53.020;6.738;2023-03-23T04:32:24;7.53;;;5.38;;
59074;SDS011;44860;53.020;6.738;2023-03-23T04:34:54;7.45;;;5.35;;
59074;SDS011;44860;53.020;6.738;2023-03-23T04:37:22;8.93;;;5.28;;
59074;SDS011;44860;53.020;6.738;2023-03-23T04:39:51;9.20;;;5.38;;
59074;SDS011;44860;53.020;6.738;2023-03-23T04:42:25;10.45;;;5.47;;
59074;SDS011;44860;53.020;6.738;2023-03-23T04:44:59;10.23;;;5.43;;
59074;SDS011;44860;53.020;6.738;2023-03-23T04:47:25;10.05;;;6.35;;
59074;SDS011;44860;53.020;6.738;2023-03-23T04:49:57;11.18;;;6.38;;
59074;SDS011;44860;53.020;6.738;2023-03-23T04:52:26;10.25;;;4.45;;
59074;SDS011;44860;53.020;6.738;2023-03-23T04:54:53;4.13;;;2.70;;
59074;SDS011;44860;53.020;6.738;2023-03-23T04:57:21;6.40;;;1.83;;
59074;SDS011;44860;53.020;6.738;2023-03-23T04:59:47;6.30;;;1.77;;
59074;SDS011;44860;53.020;6.738;2023-03-23T05:02:13;8.10;;;2.00;;
59074;SDS011;44860;53.020;6.738;2023-03-23T05:04:39;5.18;;;1.90;;
59074;SDS011;44860;53.020;6.738;2023-03-23T05:07:06;3.38;;;1.77;;
59074;SDS011;44860;53.020;6.738;2023-03-23T05:09:33;4.72;;;1.80;;
59074;SDS011;44860;53.020;6.738;2023-03-23T05:12:04;5.53;;;1.70;;
59074;SDS011;44860;53.020;6.738;2023-03-23T05:14:31;6.32;;;2.20;;
59074;SDS011;44860;53.020;6.738;2023-03-23T05:16:57;3.50;;;1.98;;
59074;SDS011;44860;53.020;6.738;2023-03-23T05:19:22;6.40;;;2.15;;
59074;SDS011;44860;53.020;6.738;2023-03-23T05:21:48;5.70;;;2.35;;
59074;SDS011;44860;53.020;6.738;2023-03-23T05:24:14;5.75;;;2.60;;
59074;SDS011;44860;53.020;6.738;2023-03-23T05:26:39;8.07;;;2.50;;
59074;SDS011;44860;53.020;6.738;2023-03-23T05:29:05;7.03;;;2.20;;
59074;SDS011;44860;53.020;6.738;2023-03-23T05:31:31;6.20;;;2.38;;
59074;SDS011;44860;53.020;6.738;2023-03-23T05:33:57;7.15;;;2.50;;
59074;SDS011;44860;53.020;6.738;2023-03-23T05:36:22;7.80;;;2.58;;
59074;SDS011;44860;53.020;6.738;2023-03-23T05:38:51;12.80;;;3.00;;
59074;SDS011;44860;53.020;6.738;2023-03-23T05:41:17;9.43;;;2.47;;
59074;SDS011;44860;53.020;6.738;2023-03-23T05:43:43;9.30;;;2.85;;
59074;SDS011;44860;53.020;6.738;2023-03-23T05:46:08;8.95;;;2.45;;
59074;SDS011;44860;53.020;6.738;2023-03-23T05:48:34;14.23;;;3.05;;
59074;SDS011;44860;53.020;6.738;2023-03-23T05:51:00;8.52;;;2.72;;
59074;SDS011;44860;53.020;6.738;2023-03-23T05:53:26;7.75;;;2.80;;
59074;SDS011;44860;53.020;6.738;2023-03-23T05:55:51;11.52;;;3.00;;
59074;SDS011;44860;53.020;6.738;2023-03-23T05:58:18;12.30;;;2.75;;
59074;SDS011;44860;53.020;6.738;2023-03-23T06:00:44;13.65;;;3.45;;
59074;SDS011;44860;53.020;6.738;2023-03-23T06:03:10;12.70;;;3.08;;
59074;SDS011;44860;53.020;6.738;2023-03-23T06:05:41;12.40;;;3.03;;
59074;SDS011;44860;53.020;6.738;2023-03-23T06:08:10;10.77;;;2.92;;
59074;SDS011;44860;53.020;6.738;2023-03-23T06:10:36;11.85;;;3.10;;
59074;SDS011;44860;53.020;6.738;2023-03-23T06:13:02;12.13;;;3.38;;
59074;SDS011;44860;53.020;6.738;2023-03-23T06:15:28;14.80;;;3.33;;
59074;SDS011;44860;53.020;6.738;2023-03-23T06:18:02;11.15;;;2.72;;
59074;SDS011;44860;53.020;6.738;2023-03-23T06:20:29;10.33;;;3.17;;
59074;SDS011;44860;53.020;6.738;2023-03-23T06:22:55;12.95;;;3.35;;
59074;SDS011;44860;53.020;6.738;2023-03-23T06:25:21;12.43;;;3.40;;
59074;SDS011;44860;53.020;6.738;2023-03-23T06:27:49;15.70;;;3.30;;
59074;SDS011;44860;53.020;6.738;2023-03-23T06:30:17;14.50;;;3.58;;
59074;SDS011;44860;53.020;6.738;2023-03-23T06:32:43;14.02;;;3.80;;
59074;SDS011;44860;53.020;6.738;2023-03-23T06:35:11;12.43;;;3.15;;
59074;SDS011;44860;53.020;6.738;2023-03-23T06:37:37;15.02;;;3.47;;
59074;SDS011;44860;53.020;6.738;2023-03-23T06:40:03;15.68;;;3.28;;
59074;SDS011;44860;53.020;6.738;2023-03-23T06:42:33;18.27;;;3.83;;
59074;SDS011;44860;53.020;6.738;2023-03-23T06:44:59;15.73;;;3.72;;
59074;SDS011;44860;53.020;6.738;2023-03-23T06:47:26;13.68;;;3.70;;
59074;SDS011;44860;53.020;6.738;2023-03-23T06:49:54;17.40;;;3.78;;
59074;SDS011;44860;53.020;6.738;2023-03-23T06:52:21;13.48;;;3.35;;
59074;SDS011;44860;53.020;6.738;2023-03-23T06:54:48;14.65;;;3.28;;
59074;SDS011;44860;53.020;6.738;2023-03-23T06:57:14;14.45;;;3.53;;
59074;SDS011;44860;53.020;6.738;2023-03-23T06:59:40;14.23;;;3.65;;
59074;SDS011;44860;53.020;6.738;2023-03-23T07:02:08;13.98;;;3.33;;
59074;SDS011;44860;53.020;6.738;2023-03-23T07:04:36;16.85;;;4.15;;
59074;SDS011;44860;53.020;6.738;2023-03-23T07:07:03;18.00;;;4.05;;
59074;SDS011;44860;53.020;6.738;2023-03-23T07:09:30;13.15;;;3.38;;
59074;SDS011;44860;53.020;6.738;2023-03-23T07:11:57;17.08;;;3.70;;
59074;SDS011;44860;53.020;6.738;2023-03-23T07:14:22;17.25;;;3.47;;
59074;SDS011;44860;53.020;6.738;2023-03-23T07:16:48;23.73;;;4.70;;
59074;SDS011;44860;53.020;6.738;2023-03-23T07:19:14;21.00;;;4.88;;
59074;SDS011;44860;53.020;6.738;2023-03-23T07:21:40;21.30;;;4.80;;
59074;SDS011;44860;53.020;6.738;2023-03-23T07:24:06;22.08;;;4.40;;
59074;SDS011;44860;53.020;6.738;2023-03-23T07:26:36;22.92;;;4.10;;
59074;SDS011;44860;53.020;6.738;2023-03-23T07:29:02;22.00;;;4.25;;
59074;SDS011;44860;53.020;6.738;2023-03-23T07:31:28;22.42;;;5.05;;
59074;SDS011;44860;53.020;6.738;2023-03-23T07:33:53;16.52;;;4.13;;
59074;SDS011;44860;53.020;6.738;2023-03-23T07:36:19;26.58;;;4.78;;
59074;SDS011;44860;53.020;6.738;2023-03-23T07:38:45;21.75;;;4.55;;
59074;SDS011;44860;53.020;6.738;2023-03-23T07:41:10;21.33;;;4.70;;
59074;SDS011;44860;53.020;6.738;2023-03-23T07:43:36;21.58;;;4.72;;
59074;SDS011;44860;53.020;6.738;2023-03-23T07:46:02;15.93;;;4.00;;
59074;SDS011;44860;53.020;6.738;2023-03-23T07:48:28;20.40;;;4.80;;
59074;SDS011;44860;53.020;6.738;2023-03-23T07:50:53;22.77;;;4.35;;
59074;SDS011;44860;53.020;6.738;2023-03-23T07:53:19;21.55;;;4.75;;
59074;SDS011;44860;53.020;6.738;2023-03-23T07:55:46;20.63;;;4.40;;
59074;SDS011;44860;53.020;6.738;2023-03-23T07:58:12;21.00;;;4.45;;
59074;SDS011;44860;53.020;6.738;2023-03-23T08:00:43;25.15;;;5.03;;
59074;SDS011;44860;53.020;6.738;2023-03-23T08:03:09;20.08;;;4.55;;
59074;SDS011;44860;53.020;6.738;2023-03-23T08:05:35;24.13;;;5.30;;
59074;SDS011;44860;53.020;6.738;2023-03-23T08:08:01;22.13;;;4.57;;
59074;SDS011;44860;53.020;6.738;2023-03-23T08:10:26;18.75;;;4.20;;
59074;SDS011;44860;53.020;6.738;2023-03-23T08:12:53;24.80;;;5.47;;
59074;SDS011;44860;53.020;6.738;2023-03-23T08:15:21;27.25;;;4.63;;
59074;SDS011;44860;53.020;6.738;2023-03-23T08:17:47;21.90;;;4.47;;
59074;SDS011;44860;53.020;6.738;2023-03-23T08:20:15;23.17;;;4.53;;
59074;SDS011;44860;53.020;6.738;2023-03-23T08:22:43;21.83;;;4.25;;
59074;SDS011;44860;53.020;6.738;2023-03-23T08:25:13;23.10;;;4.22;;
59074;SDS011;44860;53.020;6.738;2023-03-23T08:27:39;23.98;;;4.47;;
59074;SDS011;44860;53.020;6.738;2023-03-23T08:30:09;21.75;;;5.00;;
59074;SDS011;44860;53.020;6.738;2023-03-23T08:32:37;23.27;;;4.88;;
59074;SDS011;44860;53.020;6.738;2023-03-23T08:35:04;19.58;;;4.30;;
59074;SDS011;44860;53.020;6.738;2023-03-23T08:37:33;22.75;;;5.25;;
59074;SDS011;44860;53.020;6.738;2023-03-23T08:40:00;26.02;;;5.47;;
59074;SDS011;44860;53.020;6.738;2023-03-23T08:42:32;28.65;;;6.18;;
59074;SDS011;44860;53.020;6.738;2023-03-23T08:44:57;23.13;;;4.88;;
59074;SDS011;44860;53.020;6.738;2023-03-23T08:47:23;24.40;;;4.57;;
59074;SDS011;44860;53.020;6.738;2023-03-23T08:49:50;31.60;;;6.10;;
59074;SDS011;44860;53.020;6.738;2023-03-23T08:52:18;23.27;;;5.13;;
59074;SDS011;44860;53.020;6.738;2023-03-23T08:54:44;27.60;;;5.05;;
59074;SDS011;44860;53.020;6.738;2023-03-23T08:57:12;25.10;;;5.45;;
59074;SDS011;44860;53.020;6.738;2023-03-23T08:59:39;27.50;;;5.20;;
59074;SDS011;44860;53.020;6.738;2023-03-23T09:02:06;30.73;;;5.20;;
59074;SDS011;44860;53.020;6.738;2023-03-23T09:04:34;24.23;;;5.53;;
59074;SDS011;44860;53.020;6.738;2023-03-23T09:07:01;21.23;;;4.68;;
59074;SDS011;44860;53.020;6.738;2023-03-23T09:09:27;24.85;;;5.78;;
59074;SDS011;44860;53.020;6.738;2023-03-23T09:11:53;27.08;;;5.03;;
59074;SDS011;44860;53.020;6.738;2023-03-23T09:14:19;27.40;;;5.25;;
59074;SDS011;44860;53.020;6.738;2023-03-23T09:16:45;27.80;;;5.43;;
59074;SDS011;44860;53.020;6.738;2023-03-23T09:19:11;22.05;;;4.90;;
59074;SDS011;44860;53.020;6.738;2023-03-23T09:21:37;21.95;;;5.65;;
59074;SDS011;44860;53.020;6.738;2023-03-23T09:24:04;28.38;;;5.10;;
59074;SDS011;44860;53.020;6.738;2023-03-23T09:26:31;24.02;;;5.05;;
59074;SDS011;44860;53.020;6.738;2023-03-23T09:28:57;24.25;;;5.25;;
59074;SDS011;44860;53.020;6.738;2023-03-23T09:31:23;24.95;;;5.53;;
59074;SDS011;44860;53.020;6.738;2023-03-23T09:33:52;25.15;;;5.32;;
59074;SDS011;44860;53.020;6.738;2023-03-23T09:36:20;24.50;;;4.95;;
59074;SDS011;44860;53.020;6.738;2023-03-23T09:38:50;27.33;;;6.03;;
59074;SDS011;44860;53.020;6.738;2023-03-23T09:49:22;23.23;;;4.57;;
59074;SDS011;44860;53.020;6.738;2023-03-23T09:56:52;20.00;;;4.53;;
59074;SDS011;44860;53.020;6.738;2023-03-23T10:02:13;21.88;;;4.50;;
59074;SDS011;44860;53.020;6.738;2023-03-23T10:04:46;20.73;;;4.00;;
59074;SDS011;44860;53.020;6.738;2023-03-23T10:07:15;16.92;;;3.75;;
59074;SDS011;44860;53.020;6.738;2023-03-23T10:09:44;20.13;;;3.90;;
59074;SDS011;44860;53.020;6.738;2023-03-23T10:12:27;22.42;;;4.35;;
59074;SDS011;44860;53.020;6.738;2023-03-23T10:17:44;16.80;;;3.53;;
59074;SDS011;44860;53.020;6.738;2023-03-23T10:23:06;22.83;;;3.60;;
59074;SDS011;44860;53.020;6.738;2023-03-23T10:25:40;20.45;;;3.85;;
59074;SDS011;44860;53.020;6.738;2023-03-23T10:28:57;19.10;;;4.18;;
59074;SDS011;44860;53.020;6.738;2023-03-23T10:31:05;20.38;;;3.90;;
59074;SDS011;44860;53.020;6.738;2023-03-23T10:33:47;16.55;;;3.60;;
59074;SDS011;44860;53.020;6.738;2023-03-23T10:36:28;19.83;;;3.78;;
59074;SDS011;44860;53.020;6.738;2023-03-23T10:42:03;15.25;;;3.53;;
59074;SDS011;44860;53.020;6.738;2023-03-23T10:44:32;16.27;;;3.25;;
59074;SDS011;44860;53.020;6.738;2023-03-23T10:47:00;15.10;;;4.03;;
59074;SDS011;44860;53.020;6.738;2023-03-23T10:49:37;20.85;;;4.15;;
59074;SDS011;44860;53.020;6.738;2023-03-23T10:52:13;13.68;;;3.50;;
59074;SDS011;44860;53.020;6.738;2023-03-23T10:54:55;14.13;;;3.40;;
59074;SDS011;44860;53.020;6.738;2023-03-23T10:57:27;14.63;;;3.58;;
59074;SDS011;44860;53.020;6.738;2023-03-23T11:00:03;18.90;;;3.55;;
59074;SDS011;44860;53.020;6.738;2023-03-23T11:02:44;13.35;;;3.30;;
59074;SDS011;44860;53.020;6.738;2023-03-23T11:07:50;15.13;;;3.38;;
59074;SDS011;44860;53.020;6.738;2023-03-23T11:10:28;13.50;;;3.55;;
59074;SDS011;44860;53.020;6.738;2023-03-23T11:13:04;12.60;;;2.80;;
59074;SDS011;44860;53.020;6.738;2023-03-23T11:15:36;14.13;;;3.03;;
59074;SDS011;44860;53.020;6.738;2023-03-23T11:18:18;14.68;;;3.13;;
59074;SDS011;44860;53.020;6.738;2023-03-23T11:20:48;14.93;;;2.58;;
59074;SDS011;44860;53.020;6.738;2023-03-23T11:28:31;11.93;;;3.30;;
59074;SDS011;44860;53.020;6.738;2023-03-23T11:31:00;14.85;;;2.95;;
59074;SDS011;44860;53.020;6.738;2023-03-23T11:33:30;13.98;;;3.00;;
59074;SDS011;44860;53.020;6.738;2023-03-23T11:36:01;14.30;;;3.13;;
59074;SDS011;44860;53.020;6.738;2023-03-23T11:38:27;11.48;;;2.80;;
59074;SDS011;44860;53.020;6.738;2023-03-23T11:40:53;12.70;;;3.15;;
59074;SDS011;44860;53.020;6.738;2023-03-23T11:43:20;14.52;;;3.38;;
59074;SDS011;44860;53.020;6.738;2023-03-23T11:54:13;15.77;;;3.03;;
59074;SDS011;44860;53.020;6.738;2023-03-23T11:56:45;10.50;;;2.75;;
59074;SDS011;44860;53.020;6.738;2023-03-23T11:59:14;12.25;;;3.40;;
59074;SDS011;44860;53.020;6.738;2023-03-23T12:18:48;15.75;;;3.75;;
59074;SDS011;44860;53.020;6.738;2023-03-23T12:21:41;11.25;;;3.13;;
59074;SDS011;44860;53.020;6.738;2023-03-23T12:29:45;11.90;;;2.65;;
59074;SDS011;44860;53.020;6.738;2023-03-23T12:32:23;13.40;;;3.10;;
59074;SDS011;44860;53.020;6.738;2023-03-23T12:38:23;14.88;;;3.50;;
59074;SDS011;44860;53.020;6.738;2023-03-23T12:43:39;14.77;;;3.75;;
59074;SDS011;44860;53.020;6.738;2023-03-23T12:46:33;13.20;;;2.80;;
59074;SDS011;44860;53.020;6.738;2023-03-23T12:49:39;12.95;;;2.83;;
59074;SDS011;44860;53.020;6.738;2023-03-23T12:57:23;15.55;;;3.33;;
59074;SDS011;44860;53.020;6.738;2023-03-23T13:00:46;11.32;;;3.05;;
59074;SDS011;44860;53.020;6.738;2023-03-23T13:06:33;13.05;;;3.00;;
59074;SDS011;44860;53.020;6.738;2023-03-23T13:11:59;11.82;;;2.88;;
59074;SDS011;44860;53.020;6.738;2023-03-23T13:25:16;12.20;;;2.67;;
59074;SDS011;44860;53.020;6.738;2023-03-23T13:28:14;13.93;;;3.00;;
59074;SDS011;44860;53.020;6.738;2023-03-23T13:30:52;17.15;;;3.55;;
59074;SDS011;44860;53.020;6.738;2023-03-23T13:33:32;14.50;;;3.17;;
59074;SDS011;44860;53.020;6.738;2023-03-23T13:36:10;13.30;;;3.10;;
59074;SDS011;44860;53.020;6.738;2023-03-23T13:38:38;14.20;;;3.50;;
59074;SDS011;44860;53.020;6.738;2023-03-23T13:41:12;14.60;;;3.13;;
59074;SDS011;44860;53.020;6.738;2023-03-23T13:43:40;12.80;;;3.17;;
59074;SDS011;44860;53.020;6.738;2023-03-23T13:48:47;13.52;;;3.15;;
59074;SDS011;44860;53.020;6.738;2023-03-23T13:54:05;15.50;;;3.17;;
59074;SDS011;44860;53.020;6.738;2023-03-23T13:56:42;11.75;;;2.83;;
59074;SDS011;44860;53.020;6.738;2023-03-23T14:01:53;12.18;;;3.55;;
59074;SDS011;44860;53.020;6.738;2023-03-23T14:04:20;15.52;;;2.72;;
59074;SDS011;44860;53.020;6.738;2023-03-23T14:06:47;13.07;;;3.78;;
59074;SDS011;44860;53.020;6.738;2023-03-23T14:09:16;12.73;;;2.80;;
59074;SDS011;44860;53.020;6.738;2023-03-23T14:11:59;15.80;;;3.30;;
59074;SDS011;44860;53.020;6.738;2023-03-23T14:14:44;12.55;;;3.05;;
59074;SDS011;44860;53.020;6.738;2023-03-23T14:19:48;11.43;;;2.70;;
59074;SDS011;44860;53.020;6.738;2023-03-23T14:22:19;10.80;;;2.75;;
59074;SDS011;44860;53.020;6.738;2023-03-23T14:24:49;17.40;;;3.53;;
59074;SDS011;44860;53.020;6.738;2023-03-23T14:27:16;14.90;;;3.03;;
59074;SDS011;44860;53.020;6.738;2023-03-23T14:29:45;11.20;;;2.88;;
59074;SDS011;44860;53.020;6.738;2023-03-23T14:32:17;14.15;;;3.38;;
59074;SDS011;44860;53.020;6.738;2023-03-23T14:34:46;15.30;;;3.00;;
59074;SDS011;44860;53.020;6.738;2023-03-23T14:37:14;15.50;;;3.10;;
59074;SDS011;44860;53.020;6.738;2023-03-23T14:39:43;14.50;;;3.15;;
59074;SDS011;44860;53.020;6.738;2023-03-23T14:42:14;12.02;;;3.05;;
59074;SDS011;44860;53.020;6.738;2023-03-23T14:44:49;13.05;;;2.70;;
59074;SDS011;44860;53.020;6.738;2023-03-23T14:47:16;16.33;;;3.50;;
59074;SDS011;44860;53.020;6.738;2023-03-23T14:49:52;18.02;;;3.35;;
59074;SDS011;44860;53.020;6.738;2023-03-23T14:52:27;16.90;;;3.35;;
59074;SDS011;44860;53.020;6.738;2023-03-23T14:54:54;15.55;;;3.40;;
59074;SDS011;44860;53.020;6.738;2023-03-23T14:57:32;14.38;;;3.58;;
59074;SDS011;44860;53.020;6.738;2023-03-23T14:59:57;14.20;;;3.00;;
59074;SDS011;44860;53.020;6.738;2023-03-23T15:02:34;11.05;;;3.03;;
59074;SDS011;44860;53.020;6.738;2023-03-23T15:05:09;14.82;;;2.90;;
59074;SDS011;44860;53.020;6.738;2023-03-23T15:07:41;13.00;;;2.92;;
59074;SDS011;44860;53.020;6.738;2023-03-23T15:10:15;16.75;;;3.22;;
59074;SDS011;44860;53.020;6.738;2023-03-23T15:12:44;13.77;;;3.45;;
59074;SDS011;44860;53.020;6.738;2023-03-23T15:15:22;13.48;;;3.33;;
59074;SDS011;44860;53.020;6.738;2023-03-23T15:22:52;14.07;;;3.42;;
59074;SDS011;44860;53.020;6.738;2023-03-23T15:25:22;13.38;;;3.63;;
59074;SDS011;44860;53.020;6.738;2023-03-23T15:27:58;14.55;;;3.10;;
59074;SDS011;44860;53.020;6.738;2023-03-23T15:30:46;12.90;;;2.80;;
59074;SDS011;44860;53.020;6.738;2023-03-23T15:33:23;8.30;;;2.55;;
59074;SDS011;44860;53.020;6.738;2023-03-23T15:35:53;9.90;;;3.05;;
59074;SDS011;44860;53.020;6.738;2023-03-23T15:38:24;12.13;;;3.08;;
59074;SDS011;44860;53.020;6.738;2023-03-23T15:40:54;9.90;;;2.40;;
59074;SDS011;44860;53.020;6.738;2023-03-23T15:43:24;9.93;;;2.50;;
59074;SDS011;44860;53.020;6.738;2023-03-23T15:45:57;13.50;;;2.80;;
59074;SDS011;44860;53.020;6.738;2023-03-23T15:48:47;13.23;;;3.28;;
59074;SDS011;44860;53.020;6.738;2023-03-23T15:51:23;11.52;;;2.95;;
59074;SDS011;44860;53.020;6.738;2023-03-23T15:53:51;11.13;;;2.80;;
59074;SDS011;44860;53.020;6.738;2023-03-23T15:56:18;10.30;;;2.63;;
59074;SDS011;44860;53.020;6.738;2023-03-23T15:58:45;14.50;;;2.88;;
59074;SDS011;44860;53.020;6.738;2023-03-23T16:01:13;13.27;;;2.92;;
59074;SDS011;44860;53.020;6.738;2023-03-23T16:03:48;12.77;;;3.08;;
59074;SDS011;44860;53.020;6.738;2023-03-23T16:06:15;15.52;;;3.30;;
59074;SDS011;44860;53.020;6.738;2023-03-23T16:08:42;14.07;;;3.28;;
59074;SDS011;44860;53.020;6.738;2023-03-23T16:11:09;12.02;;;2.95;;
59074;SDS011;44860;53.020;6.738;2023-03-23T16:13:36;10.48;;;2.75;;
59074;SDS011;44860;53.020;6.738;2023-03-23T16:16:03;11.48;;;3.40;;
59074;SDS011;44860;53.020;6.738;2023-03-23T16:18:29;14.43;;;3.10;;
59074;SDS011;44860;53.020;6.738;2023-03-23T16:20:55;13.20;;;2.78;;
59074;SDS011;44860;53.020;6.738;2023-03-23T16:23:21;14.02;;;3.45;;
59074;SDS011;44860;53.020;6.738;2023-03-23T16:25:47;12.65;;;2.95;;
59074;SDS011;44860;53.020;6.738;2023-03-23T16:28:13;11.80;;;3.15;;
59074;SDS011;44860;53.020;6.738;2023-03-23T16:30:40;16.42;;;3.10;;
59074;SDS011;44860;53.020;6.738;2023-03-23T16:33:07;11.57;;;2.90;;
59074;SDS011;44860;53.020;6.738;2023-03-23T16:35:33;16.63;;;3.35;;
59074;SDS011;44860;53.020;6.738;2023-03-23T16:37:59;14.13;;;2.95;;
59074;SDS011;44860;53.020;6.738;2023-03-23T16:40:28;12.95;;;2.63;;
59074;SDS011;44860;53.020;6.738;2023-03-23T16:42:54;12.63;;;3.10;;
59074;SDS011;44860;53.020;6.738;2023-03-23T16:45:20;15.23;;;3.38;;
59074;SDS011;44860;53.020;6.738;2023-03-23T16:47:51;13.20;;;3.47;;
59074;SDS011;44860;53.020;6.738;2023-03-23T16:50:18;14.70;;;3.38;;
59074;SDS011;44860;53.020;6.738;2023-03-23T16:52:45;12.07;;;3.30;;
59074;SDS011;44860;53.020;6.738;2023-03-23T16:55:11;13.75;;;3.50;;
59074;SDS011;44860;53.020;6.738;2023-03-23T16:57:39;16.25;;;3.47;;
59074;SDS011;44860;53.020;6.738;2023-03-23T17:00:07;17.13;;;3.55;;
59074;SDS011;44860;53.020;6.738;2023-03-23T17:02:44;14.27;;;3.38;;